Terminal Aerodrome Forecast
Issued by NWS

Home | Current Version | Previous Version | Text Only | Print | Product List | Glossary On
Versions: 1 2 3 4 5 6 7 8 9 10 11 12 13 14 15 16 17 18 19 20 21 22 23 24
000
FTUS46 KSGX 152320
TAFSAN
TAF
KSAN 152320Z 1600/1706 VRB05KT P6SM FEW010 FEW250
     FM161300 VRB05KT P6SM BKN015
     FM161900 19006KT P6SM SCT020
     FM162300 17005KT P6SM BKN020=

USA.gov is the U.S. government's official web portal to all federal, state and local government web resources and services.